sensor_id;sensor_type;location;lat;lon;timestamp;pressure;altitude;pressure_sealevel;temperature;humidity
4326;BME280;58429;49.826;10.880;2023-02-28T00:00:42;99631;;;-0.99;66.42
4326;BME280;58429;49.826;10.880;2023-02-28T00:01:42;99635;;;-1;66.47
4326;BME280;58429;49.826;10.880;2023-02-28T00:02:42;99634;;;-1.01;66.46
4326;BME280;58429;49.826;10.880;2023-02-28T00:03:42;99635;;;-1.01;66.45
4326;BME280;58429;49.826;10.880;2023-02-28T00:04:42;99641;;;-0.99;66.49
4326;BME280;58429;49.826;10.880;2023-02-28T00:05:42;99638;;;-1.03;66.43
4326;BME280;58429;49.826;10.880;2023-02-28T00:06:42;99638;;;-1.04;66.45
4326;BME280;58429;49.826;10.880;2023-02-28T00:07:42;99638;;;-1.04;66.53
4326;BME280;58429;49.826;10.880;2023-02-28T00:08:42;99631;;;-1.01;66.48
4326;BME280;58429;49.826;10.880;2023-02-28T00:09:42;99634;;;-1.03;66.56
4326;BME280;58429;49.826;10.880;2023-02-28T00:10:42;99631;;;-1.03;66.73
4326;BME280;58429;49.826;10.880;2023-02-28T00:11:42;99623;;;-1.06;66.65
4326;BME280;58429;49.826;10.880;2023-02-28T00:12:42;99628;;;-1.02;66.83
4326;BME280;58429;49.826;10.880;2023-02-28T00:13:44;99630;;;-1.05;66.9
4326;BME280;58429;49.826;10.880;2023-02-28T00:14:42;99627;;;-1.06;67.05
4326;BME280;58429;49.826;10.880;2023-02-28T00:15:42;99623;;;-1.05;66.93
4326;BME280;58429;49.826;10.880;2023-02-28T00:16:42;99634;;;-1.03;67.1
4326;BME280;58429;49.826;10.880;2023-02-28T00:17:43;99628;;;-1.07;66.9
4326;BME280;58429;49.826;10.880;2023-02-28T00:18:42;99626;;;-1.09;66.93
4326;BME280;58429;49.826;10.880;2023-02-28T00:19:42;99631;;;-1.08;67.24
4326;BME280;58429;49.826;10.880;2023-02-28T00:20:42;99628;;;-1.07;67.03
4326;BME280;58429;49.826;10.880;2023-02-28T00:21:42;99620;;;-1.08;67.01
4326;BME280;58429;49.826;10.880;2023-02-28T00:22:43;99615;;;-1.11;67.1
4326;BME280;58429;49.826;10.880;2023-02-28T00:23:42;99624;;;-1.11;67.16
4326;BME280;58429;49.826;10.880;2023-02-28T00:24:42;99624;;;-1.1;67.19
4326;BME280;58429;49.826;10.880;2023-02-28T00:25:42;99623;;;-1.13;67.25
4326;BME280;58429;49.826;10.880;2023-02-28T00:26:42;99626;;;-1.1;67.26
4326;BME280;58429;49.826;10.880;2023-02-28T00:27:42;99619;;;-1.12;67.32
4326;BME280;58429;49.826;10.880;2023-02-28T00:28:42;99623;;;-1.14;67.17
4326;BME280;58429;49.826;10.880;2023-02-28T00:29:42;99619;;;-1.12;67.25
4326;BME280;58429;49.826;10.880;2023-02-28T00:30:43;99621;;;-1.16;67.39
4326;BME280;58429;49.826;10.880;2023-02-28T00:31:42;99616;;;-1.15;67.42
4326;BME280;58429;49.826;10.880;2023-02-28T00:32:42;99619;;;-1.12;67.33
4326;BME280;58429;49.826;10.880;2023-02-28T00:33:42;99618;;;-1.12;67.4
4326;BME280;58429;49.826;10.880;2023-02-28T00:34:42;99617;;;-1.12;67.27
4326;BME280;58429;49.826;10.880;2023-02-28T00:35:42;99624;;;-1.11;67.28
4326;BME280;58429;49.826;10.880;2023-02-28T00:36:42;99620;;;-1.11;67.34
4326;BME280;58429;49.826;10.880;2023-02-28T00:37:42;99618;;;-1.13;67.26
4326;BME280;58429;49.826;10.880;2023-02-28T00:38:42;99620;;;-1.14;67.23
4326;BME280;58429;49.826;10.880;2023-02-28T00:39:42;99623;;;-1.12;67.21
4326;BME280;58429;49.826;10.880;2023-02-28T00:40:42;99619;;;-1.12;67.27
4326;BME280;58429;49.826;10.880;2023-02-28T00:41:42;99622;;;-1.15;67.21
4326;BME280;58429;49.826;10.880;2023-02-28T00:42:42;99623;;;-1.14;67.34
4326;BME280;58429;49.826;10.880;2023-02-28T00:43:42;99624;;;-1.12;67.31
4326;BME280;58429;49.826;10.880;2023-02-28T00:44:42;99620;;;-1.13;67.24
4326;BME280;58429;49.826;10.880;2023-02-28T00:45:42;99620;;;-1.16;67.47
4326;BME280;58429;49.826;10.880;2023-02-28T00:46:42;99622;;;-1.15;67.44
4326;BME280;58429;49.826;10.880;2023-02-28T00:47:42;99621;;;-1.15;67.4
4326;BME280;58429;49.826;10.880;2023-02-28T00:48:42;99620;;;-1.16;67.44
4326;BME280;58429;49.826;10.880;2023-02-28T00:49:42;99619;;;-1.16;67.39
4326;BME280;58429;49.826;10.880;2023-02-28T00:50:42;99624;;;-1.17;67.58
4326;BME280;58429;49.826;10.880;2023-02-28T00:51:42;99622;;;-1.17;67.52
4326;BME280;58429;49.826;10.880;2023-02-28T00:52:42;99624;;;-1.17;67.46
4326;BME280;58429;49.826;10.880;2023-02-28T00:53:42;99629;;;-1.16;67.47
4326;BME280;58429;49.826;10.880;2023-02-28T00:54:42;99626;;;-1.2;67.59
4326;BME280;58429;49.826;10.880;2023-02-28T00:55:42;99620;;;-1.21;67.7
4326;BME280;58429;49.826;10.880;2023-02-28T00:56:42;99617;;;-1.21;67.62
4326;BME280;58429;49.826;10.880;2023-02-28T00:57:42;99621;;;-1.2;67.63
4326;BME280;58429;49.826;10.880;2023-02-28T00:58:42;99621;;;-1.2;67.62
4326;BME280;58429;49.826;10.880;2023-02-28T00:59:42;99617;;;-1.19;67.64
4326;BME280;58429;49.826;10.880;2023-02-28T01:00:42;99616;;;-1.19;67.53
4326;BME280;58429;49.826;10.880;2023-02-28T01:01:43;99616;;;-1.2;67.55
4326;BME280;58429;49.826;10.880;2023-02-28T01:02:42;99617;;;-1.2;67.53
4326;BME280;58429;49.826;10.880;2023-02-28T01:03:42;99617;;;-1.22;67.61
4326;BME280;58429;49.826;10.880;2023-02-28T01:04:42;99618;;;-1.24;67.58
4326;BME280;58429;49.826;10.880;2023-02-28T01:05:42;99614;;;-1.24;67.63
4326;BME280;58429;49.826;10.880;2023-02-28T01:06:42;99620;;;-1.24;67.74
4326;BME280;58429;49.826;10.880;2023-02-28T01:07:42;99619;;;-1.24;67.68
4326;BME280;58429;49.826;10.880;2023-02-28T01:08:42;99613;;;-1.27;67.74
4326;BME280;58429;49.826;10.880;2023-02-28T01:09:42;99614;;;-1.26;67.82
4326;BME280;58429;49.826;10.880;2023-02-28T01:10:42;99618;;;-1.26;67.84
4326;BME280;58429;49.826;10.880;2023-02-28T01:11:42;99616;;;-1.29;67.73
4326;BME280;58429;49.826;10.880;2023-02-28T01:12:42;99612;;;-1.24;67.79
4326;BME280;58429;49.826;10.880;2023-02-28T01:13:43;99616;;;-1.28;67.93
4326;BME280;58429;49.826;10.880;2023-02-28T01:14:42;99615;;;-1.36;68.18
4326;BME280;58429;49.826;10.880;2023-02-28T01:15:43;99613;;;-1.32;68.08
4326;BME280;58429;49.826;10.880;2023-02-28T01:16:42;99618;;;-1.34;68.21
4326;BME280;58429;49.826;10.880;2023-02-28T01:17:42;99615;;;-1.35;68.6
4326;BME280;58429;49.826;10.880;2023-02-28T01:18:42;99614;;;-1.36;68.19
4326;BME280;58429;49.826;10.880;2023-02-28T01:19:42;99614;;;-1.36;68.26
4326;BME280;58429;49.826;10.880;2023-02-28T01:20:42;99615;;;-1.37;68.26
4326;BME280;58429;49.826;10.880;2023-02-28T01:21:42;99616;;;-1.38;68.24
4326;BME280;58429;49.826;10.880;2023-02-28T01:22:42;99613;;;-1.38;68.27
4326;BME280;58429;49.826;10.880;2023-02-28T01:23:42;99607;;;-1.39;68.38
4326;BME280;58429;49.826;10.880;2023-02-28T01:24:42;99607;;;-1.39;68.33
4326;BME280;58429;49.826;10.880;2023-02-28T01:25:42;99607;;;-1.36;68.48
4326;BME280;58429;49.826;10.880;2023-02-28T01:26:42;99607;;;-1.39;68.65
4326;BME280;58429;49.826;10.880;2023-02-28T01:27:42;99612;;;-1.41;68.46
4326;BME280;58429;49.826;10.880;2023-02-28T01:28:42;99607;;;-1.37;68.39
4326;BME280;58429;49.826;10.880;2023-02-28T01:29:42;99608;;;-1.39;68.61
4326;BME280;58429;49.826;10.880;2023-02-28T01:30:42;99600;;;-1.39;68.55
4326;BME280;58429;49.826;10.880;2023-02-28T01:31:42;99603;;;-1.4;68.67
4326;BME280;58429;49.826;10.880;2023-02-28T01:32:42;99599;;;-1.41;68.62
4326;BME280;58429;49.826;10.880;2023-02-28T01:33:42;99605;;;-1.43;68.63
4326;BME280;58429;49.826;10.880;2023-02-28T01:34:42;99603;;;-1.42;68.73
4326;BME280;58429;49.826;10.880;2023-02-28T01:35:42;99613;;;-1.43;68.69
4326;BME280;58429;49.826;10.880;2023-02-28T01:36:42;99608;;;-1.45;68.66
4326;BME280;58429;49.826;10.880;2023-02-28T01:37:42;99604;;;-1.45;68.74
4326;BME280;58429;49.826;10.880;2023-02-28T01:38:42;99608;;;-1.44;68.69
4326;BME280;58429;49.826;10.880;2023-02-28T01:39:42;99599;;;-1.45;69
4326;BME280;58429;49.826;10.880;2023-02-28T01:40:42;99596;;;-1.43;68.78
4326;BME280;58429;49.826;10.880;2023-02-28T01:41:42;99600;;;-1.47;69.14
4326;BME280;58429;49.826;10.880;2023-02-28T01:42:42;99603;;;-1.5;69.19
4326;BME280;58429;49.826;10.880;2023-02-28T01:43:59;99604;;;-1.45;69.05
4326;BME280;58429;49.826;10.880;2023-02-28T01:45:00;99601;;;-1.43;69.06
4326;BME280;58429;49.826;10.880;2023-02-28T01:45:42;99601;;;-1.44;69.01
4326;BME280;58429;49.826;10.880;2023-02-28T01:46:42;99602;;;-1.47;69.05
4326;BME280;58429;49.826;10.880;2023-02-28T01:47:42;99599;;;-1.47;69.13
4326;BME280;58429;49.826;10.880;2023-02-28T01:48:43;99604;;;-1.45;69.17
4326;BME280;58429;49.826;10.880;2023-02-28T01:49:42;99600;;;-1.47;69.06
4326;BME280;58429;49.826;10.880;2023-02-28T01:50:43;99599;;;-1.47;69.1
4326;BME280;58429;49.826;10.880;2023-02-28T01:51:44;99600;;;-1.47;69.04
4326;BME280;58429;49.826;10.880;2023-02-28T01:52:42;99603;;;-1.48;69.04
4326;BME280;58429;49.826;10.880;2023-02-28T01:53:43;99587;;;-1.48;69.24
4326;BME280;58429;49.826;10.880;2023-02-28T01:54:42;99595;;;-1.48;69.17
4326;BME280;58429;49.826;10.880;2023-02-28T01:55:42;99593;;;-1.47;69.11
4326;BME280;58429;49.826;10.880;2023-02-28T01:56:43;99594;;;-1.51;69.37
4326;BME280;58429;49.826;10.880;2023-02-28T01:57:43;99594;;;-1.47;69.12
4326;BME280;58429;49.826;10.880;2023-02-28T01:58:42;99589;;;-1.47;69.14
4326;BME280;58429;49.826;10.880;2023-02-28T01:59:43;99591;;;-1.44;69.14
4326;BME280;58429;49.826;10.880;2023-02-28T02:00:42;99591;;;-1.44;69.13
4326;BME280;58429;49.826;10.880;2023-02-28T02:01:42;99591;;;-1.46;69
4326;BME280;58429;49.826;10.880;2023-02-28T02:02:43;99581;;;-1.47;69
4326;BME280;58429;49.826;10.880;2023-02-28T02:03:42;99588;;;-1.48;68.93
4326;BME280;58429;49.826;10.880;2023-02-28T02:04:44;99588;;;-1.49;68.98
4326;BME280;58429;49.826;10.880;2023-02-28T02:05:42;99583;;;-1.5;69.04
4326;BME280;58429;49.826;10.880;2023-02-28T02:06:43;99584;;;-1.5;69.17
4326;BME280;58429;49.826;10.880;2023-02-28T02:07:43;99583;;;-1.52;69.19
4326;BME280;58429;49.826;10.880;2023-02-28T02:08:42;99580;;;-1.5;69.07
4326;BME280;58429;49.826;10.880;2023-02-28T02:09:42;99582;;;-1.52;69
4326;BME280;58429;49.826;10.880;2023-02-28T02:10:43;99583;;;-1.51;68.94
4326;BME280;58429;49.826;10.880;2023-02-28T02:11:43;99580;;;-1.49;68.99
4326;BME280;58429;49.826;10.880;2023-02-28T02:12:47;99580;;;-1.5;69.09
4326;BME280;58429;49.826;10.880;2023-02-28T02:13:47;99582;;;-1.52;69
4326;BME280;58429;49.826;10.880;2023-02-28T02:14:45;99583;;;-1.54;69.02
4326;BME280;58429;49.826;10.880;2023-02-28T02:15:44;99578;;;-1.53;69
4326;BME280;58429;49.826;10.880;2023-02-28T02:16:46;99577;;;-1.52;68.96
4326;BME280;58429;49.826;10.880;2023-02-28T02:17:43;99577;;;-1.5;68.92
4326;BME280;58429;49.826;10.880;2023-02-28T02:18:43;99574;;;-1.56;69.06
4326;BME280;58429;49.826;10.880;2023-02-28T02:20:46;99576;;;-1.53;68.86
4326;BME280;58429;49.826;10.880;2023-02-28T02:20:54;99575;;;-1.5;68.94
4326;BME280;58429;49.826;10.880;2023-02-28T02:21:47;99576;;;-1.5;68.79
4326;BME280;58429;49.826;10.880;2023-02-28T02:22:50;99573;;;-1.47;68.74
4326;BME280;58429;49.826;10.880;2023-02-28T02:23:48;99572;;;-1.49;68.68
4326;BME280;58429;49.826;10.880;2023-02-28T02:24:47;99568;;;-1.5;68.65
4326;BME280;58429;49.826;10.880;2023-02-28T02:25:42;99568;;;-1.5;68.6
4326;BME280;58429;49.826;10.880;2023-02-28T02:26:46;99570;;;-1.52;68.62
4326;BME280;58429;49.826;10.880;2023-02-28T02:27:48;99565;;;-1.54;68.56
4326;BME280;58429;49.826;10.880;2023-02-28T02:28:50;99565;;;-1.51;68.49
4326;BME280;58429;49.826;10.880;2023-02-28T02:29:47;99557;;;-1.51;68.46
4326;BME280;58429;49.826;10.880;2023-02-28T02:30:44;99559;;;-1.56;68.5
4326;BME280;58429;49.826;10.880;2023-02-28T02:31:52;99559;;;-1.54;68.52
4326;BME280;58429;49.826;10.880;2023-02-28T02:32:45;99563;;;-1.57;68.45
4326;BME280;58429;49.826;10.880;2023-02-28T02:33:59;99563;;;-1.57;68.41
4326;BME280;58429;49.826;10.880;2023-02-28T02:34:45;99558;;;-1.56;68.6
4326;BME280;58429;49.826;10.880;2023-02-28T02:35:43;99550;;;-1.59;68.57
4326;BME280;58429;49.826;10.880;2023-02-28T02:36:44;99557;;;-1.58;68.72
4326;BME280;58429;49.826;10.880;2023-02-28T02:37:43;99560;;;-1.57;68.58
4326;BME280;58429;49.826;10.880;2023-02-28T02:38:44;99554;;;-1.6;68.67
4326;BME280;58429;49.826;10.880;2023-02-28T02:39:45;99554;;;-1.6;68.71
4326;BME280;58429;49.826;10.880;2023-02-28T02:40:43;99545;;;-1.62;68.61
4326;BME280;58429;49.826;10.880;2023-02-28T02:41:45;99552;;;-1.6;68.71
4326;BME280;58429;49.826;10.880;2023-02-28T02:42:44;99555;;;-1.62;68.78
4326;BME280;58429;49.826;10.880;2023-02-28T02:43:44;99553;;;-1.63;68.79
4326;BME280;58429;49.826;10.880;2023-02-28T02:44:43;99557;;;-1.62;68.97
4326;BME280;58429;49.826;10.880;2023-02-28T02:45:44;99560;;;-1.6;68.97
4326;BME280;58429;49.826;10.880;2023-02-28T02:46:43;99555;;;-1.6;68.85
4326;BME280;58429;49.826;10.880;2023-02-28T02:47:42;99559;;;-1.56;68.9
4326;BME280;58429;49.826;10.880;2023-02-28T02:48:42;99560;;;-1.57;69.04
4326;BME280;58429;49.826;10.880;2023-02-28T02:49:44;99558;;;-1.62;68.91
4326;BME280;58429;49.826;10.880;2023-02-28T02:50:43;99552;;;-1.59;69.66
4326;BME280;58429;49.826;10.880;2023-02-28T02:51:42;99560;;;-1.6;69.55
4326;BME280;58429;49.826;10.880;2023-02-28T02:52:44;99560;;;-1.62;69.29
4326;BME280;58429;49.826;10.880;2023-02-28T02:53:44;99555;;;-1.59;69.27
4326;BME280;58429;49.826;10.880;2023-02-28T02:54:43;99563;;;-1.6;69.35
4326;BME280;58429;49.826;10.880;2023-02-28T02:55:43;99558;;;-1.59;69.38
4326;BME280;58429;49.826;10.880;2023-02-28T02:56:43;99562;;;-1.61;69.63
4326;BME280;58429;49.826;10.880;2023-02-28T02:57:43;99563;;;-1.56;69.48
4326;BME280;58429;49.826;10.880;2023-02-28T02:58:42;99563;;;-1.58;69.47
4326;BME280;58429;49.826;10.880;2023-02-28T02:59:42;99559;;;-1.6;69.43
4326;BME280;58429;49.826;10.880;2023-02-28T03:00:44;99558;;;-1.6;69.77
4326;BME280;58429;49.826;10.880;2023-02-28T03:01:43;99551;;;-1.62;69.42
4326;BME280;58429;49.826;10.880;2023-02-28T03:02:43;99556;;;-1.64;69.68
4326;BME280;58429;49.826;10.880;2023-02-28T03:03:42;99557;;;-1.64;69.64
4326;BME280;58429;49.826;10.880;2023-02-28T03:04:43;99562;;;-1.62;69.68
4326;BME280;58429;49.826;10.880;2023-02-28T03:05:44;99556;;;-1.62;69.74
4326;BME280;58429;49.826;10.880;2023-02-28T03:06:42;99552;;;-1.64;69.82
4326;BME280;58429;49.826;10.880;2023-02-28T03:07:42;99560;;;-1.62;69.93
4326;BME280;58429;49.826;10.880;2023-02-28T03:08:42;99555;;;-1.6;69.66
4326;BME280;58429;49.826;10.880;2023-02-28T03:09:49;99561;;;-1.63;69.66
4326;BME280;58429;49.826;10.880;2023-02-28T03:10:43;99558;;;-1.61;69.68
4326;BME280;58429;49.826;10.880;2023-02-28T03:11:42;99564;;;-1.6;69.8
4326;BME280;58429;49.826;10.880;2023-02-28T03:12:45;99563;;;-1.6;70.14
4326;BME280;58429;49.826;10.880;2023-02-28T03:13:47;99563;;;-1.58;70.15
4326;BME280;58429;49.826;10.880;2023-02-28T03:14:47;99562;;;-1.6;70.01
4326;BME280;58429;49.826;10.880;2023-02-28T03:15:46;99558;;;-1.58;70.01
4326;BME280;58429;49.826;10.880;2023-02-28T03:16:47;99559;;;-1.62;70.21
4326;BME280;58429;49.826;10.880;2023-02-28T03:17:46;99559;;;-1.61;70.2
4326;BME280;58429;49.826;10.880;2023-02-28T03:18:44;99561;;;-1.58;70.14
4326;BME280;58429;49.826;10.880;2023-02-28T03:19:45;99555;;;-1.59;70.06
4326;BME280;58429;49.826;10.880;2023-02-28T03:20:45;99554;;;-1.6;70.02
4326;BME280;58429;49.826;10.880;2023-02-28T03:21:43;99561;;;-1.6;69.99
4326;BME280;58429;49.826;10.880;2023-02-28T03:22:45;99562;;;-1.6;70.04
4326;BME280;58429;49.826;10.880;2023-02-28T03:23:45;99558;;;-1.53;70.15
4326;BME280;58429;49.826;10.880;2023-02-28T03:24:43;99564;;;-1.59;70.03
4326;BME280;58429;49.826;10.880;2023-02-28T03:25:46;99557;;;-1.58;69.96
4326;BME280;58429;49.826;10.880;2023-02-28T03:26:43;99556;;;-1.58;70.02
4326;BME280;58429;49.826;10.880;2023-02-28T03:27:45;99566;;;-1.6;70.09
4326;BME280;58429;49.826;10.880;2023-02-28T03:28:43;99561;;;-1.6;70.19
4326;BME280;58429;49.826;10.880;2023-02-28T03:29:43;99564;;;-1.6;69.96
4326;BME280;58429;49.826;10.880;2023-02-28T03:30:45;99555;;;-1.62;69.99
4326;BME280;58429;49.826;10.880;2023-02-28T03:31:44;99557;;;-1.61;70.19
4326;BME280;58429;49.826;10.880;2023-02-28T03:32:44;99558;;;-1.64;70.08
4326;BME280;58429;49.826;10.880;2023-02-28T03:33:43;99563;;;-1.65;70.06
4326;BME280;58429;49.826;10.880;2023-02-28T03:34:44;99561;;;-1.65;70.03
4326;BME280;58429;49.826;10.880;2023-02-28T03:35:43;99561;;;-1.69;70.41
4326;BME280;58429;49.826;10.880;2023-02-28T03:36:44;99557;;;-1.7;70.35
4326;BME280;58429;49.826;10.880;2023-02-28T03:37:42;99560;;;-1.69;70.39
4326;BME280;58429;49.826;10.880;2023-02-28T03:38:44;99559;;;-1.65;70.54
4326;BME280;58429;49.826;10.880;2023-02-28T03:39:43;99564;;;-1.65;70.36
4326;BME280;58429;49.826;10.880;2023-02-28T03:40:44;99567;;;-1.64;70.34
4326;BME280;58429;49.826;10.880;2023-02-28T03:41:43;99564;;;-1.64;70.21
4326;BME280;58429;49.826;10.880;2023-02-28T03:42:43;99561;;;-1.66;70.2
4326;BME280;58429;49.826;10.880;2023-02-28T03:43:43;99567;;;-1.64;70.15
4326;BME280;58429;49.826;10.880;2023-02-28T03:44:43;99573;;;-1.65;70.31
4326;BME280;58429;49.826;10.880;2023-02-28T03:45:42;99569;;;-1.66;70.32
4326;BME280;58429;49.826;10.880;2023-02-28T03:46:44;99572;;;-1.67;70.25
4326;BME280;58429;49.826;10.880;2023-02-28T03:47:44;99575;;;-1.66;70.23
4326;BME280;58429;49.826;10.880;2023-02-28T03:48:43;99577;;;-1.66;70.23
4326;BME280;58429;49.826;10.880;2023-02-28T03:49:43;99576;;;-1.67;70.4
4326;BME280;58429;49.826;10.880;2023-02-28T03:50:43;99572;;;-1.65;70.45
4326;BME280;58429;49.826;10.880;2023-02-28T03:51:42;99575;;;-1.66;70.68
4326;BME280;58429;49.826;10.880;2023-02-28T03:52:44;99577;;;-1.66;70.42
4326;BME280;58429;49.826;10.880;2023-02-28T03:53:44;99582;;;-1.66;70.41
4326;BME280;58429;49.826;10.880;2023-02-28T03:54:44;99580;;;-1.66;70.36
4326;BME280;58429;49.826;10.880;2023-02-28T03:55:44;99579;;;-1.65;70.45
4326;BME280;58429;49.826;10.880;2023-02-28T03:56:43;99583;;;-1.67;70.59
4326;BME280;58429;49.826;10.880;2023-02-28T03:57:43;99585;;;-1.67;70.34
4326;BME280;58429;49.826;10.880;2023-02-28T03:58:44;99585;;;-1.67;70.41
4326;BME280;58429;49.826;10.880;2023-02-28T03:59:43;99586;;;-1.65;70.51
4326;BME280;58429;49.826;10.880;2023-02-28T04:00:43;99584;;;-1.65;70.53
4326;BME280;58429;49.826;10.880;2023-02-28T04:01:43;99588;;;-1.65;70.43
4326;BME280;58429;49.826;10.880;2023-02-28T04:02:42;99591;;;-1.63;70.46
4326;BME280;58429;49.826;10.880;2023-02-28T04:03:42;99589;;;-1.67;70.45
4326;BME280;58429;49.826;10.880;2023-02-28T04:04:42;99578;;;-1.66;70.52
4326;BME280;58429;49.826;10.880;2023-02-28T04:05:47;99591;;;-1.66;70.52
4326;BME280;58429;49.826;10.880;2023-02-28T04:06:42;99585;;;-1.66;70.43
4326;BME280;58429;49.826;10.880;2023-02-28T04:07:42;99584;;;-1.65;70.46
4326;BME280;58429;49.826;10.880;2023-02-28T04:08:43;99579;;;-1.65;70.37
4326;BME280;58429;49.826;10.880;2023-02-28T04:09:42;99585;;;-1.67;70.49
4326;BME280;58429;49.826;10.880;2023-02-28T04:10:43;99579;;;-1.65;70.61
4326;BME280;58429;49.826;10.880;2023-02-28T04:11:43;99580;;;-1.67;70.5
4326;BME280;58429;49.826;10.880;2023-02-28T04:12:43;99582;;;-1.65;70.4
4326;BME280;58429;49.826;10.880;2023-02-28T04:13:42;99584;;;-1.7;70.57
4326;BME280;58429;49.826;10.880;2023-02-28T04:14:42;99581;;;-1.7;70.58
4326;BME280;58429;49.826;10.880;2023-02-28T04:15:42;99585;;;-1.7;70.65
4326;BME280;58429;49.826;10.880;2023-02-28T04:16:42;99584;;;-1.69;70.74
4326;BME280;58429;49.826;10.880;2023-02-28T04:17:42;99579;;;-1.7;71.03
4326;BME280;58429;49.826;10.880;2023-02-28T04:18:42;99582;;;-1.69;70.83
4326;BME280;58429;49.826;10.880;2023-02-28T04:19:42;99588;;;-1.72;70.76
4326;BME280;58429;49.826;10.880;2023-02-28T04:20:42;99581;;;-1.72;71.07
4326;BME280;58429;49.826;10.880;2023-02-28T04:21:43;99577;;;-1.71;70.88
4326;BME280;58429;49.826;10.880;2023-02-28T04:22:42;99584;;;-1.7;70.98
4326;BME280;58429;49.826;10.880;2023-02-28T04:23:42;99578;;;-1.7;71.08
4326;BME280;58429;49.826;10.880;2023-02-28T04:24:43;99584;;;-1.71;71.32
4326;BME280;58429;49.826;10.880;2023-02-28T04:25:42;99575;;;-1.71;71.26
4326;BME280;58429;49.826;10.880;2023-02-28T04:26:43;99578;;;-1.73;70.98
4326;BME280;58429;49.826;10.880;2023-02-28T04:27:43;99577;;;-1.73;71.1
4326;BME280;58429;49.826;10.880;2023-02-28T04:28:42;99579;;;-1.74;71.11
4326;BME280;58429;49.826;10.880;2023-02-28T04:29:42;99576;;;-1.7;71.15
4326;BME280;58429;49.826;10.880;2023-02-28T04:30:42;99585;;;-1.72;71.24
4326;BME280;58429;49.826;10.880;2023-02-28T04:31:43;99582;;;-1.72;71.4
4326;BME280;58429;49.826;10.880;2023-02-28T04:32:42;99574;;;-1.71;71.24
4326;BME280;58429;49.826;10.880;2023-02-28T04:33:42;99576;;;-1.72;71.06
4326;BME280;58429;49.826;10.880;2023-02-28T04:34:42;99583;;;-1.74;71
4326;BME280;58429;49.826;10.880;2023-02-28T04:35:42;99576;;;-1.72;70.97
4326;BME280;58429;49.826;10.880;2023-02-28T04:36:43;99587;;;-1.74;70.92
4326;BME280;58429;49.826;10.880;2023-02-28T04:37:42;99582;;;-1.73;71
4326;BME280;58429;49.826;10.880;2023-02-28T04:38:43;99581;;;-1.73;70.95
4326;BME280;58429;49.826;10.880;2023-02-28T04:39:43;99587;;;-1.73;70.99
4326;BME280;58429;49.826;10.880;2023-02-28T04:40:43;99589;;;-1.76;71.02
4326;BME280;58429;49.826;10.880;2023-02-28T04:41:42;99588;;;-1.73;70.95
4326;BME280;58429;49.826;10.880;2023-02-28T04:42:42;99586;;;-1.76;71.06
4326;BME280;58429;49.826;10.880;2023-02-28T04:43:42;99585;;;-1.75;70.93
4326;BME280;58429;49.826;10.880;2023-02-28T04:44:42;99588;;;-1.76;70.95
4326;BME280;58429;49.826;10.880;2023-02-28T04:45:43;99587;;;-1.77;71.01
4326;BME280;58429;49.826;10.880;2023-02-28T04:46:43;99582;;;-1.77;71.07
4326;BME280;58429;49.826;10.880;2023-02-28T04:47:42;99588;;;-1.84;71.01
4326;BME280;58429;49.826;10.880;2023-02-28T04:48:43;99585;;;-1.77;71.21
4326;BME280;58429;49.826;10.880;2023-02-28T04:49:43;99586;;;-1.79;71.03
4326;BME280;58429;49.826;10.880;2023-02-28T04:50:42;99582;;;-1.76;71.11
4326;BME280;58429;49.826;10.880;2023-02-28T04:51:42;99574;;;-1.79;71.08
4326;BME280;58429;49.826;10.880;2023-02-28T04:52:43;99581;;;-1.79;71.23
4326;BME280;58429;49.826;10.880;2023-02-28T04:53:43;99577;;;-1.81;71.44
4326;BME280;58429;49.826;10.880;2023-02-28T04:54:42;99589;;;-1.81;71.27
4326;BME280;58429;49.826;10.880;2023-02-28T04:55:43;99577;;;-1.8;71.25
4326;BME280;58429;49.826;10.880;2023-02-28T04:56:43;99578;;;-1.81;71.16
4326;BME280;58429;49.826;10.880;2023-02-28T04:57:43;99581;;;-1.82;71.16
4326;BME280;58429;49.826;10.880;2023-02-28T04:58:43;99578;;;-1.84;71.13
4326;BME280;58429;49.826;10.880;2023-02-28T04:59:43;99586;;;-1.87;71.16
4326;BME280;58429;49.826;10.880;2023-02-28T05:00:43;99580;;;-1.85;71.24
4326;BME280;58429;49.826;10.880;2023-02-28T05:01:45;99584;;;-1.85;71.16
4326;BME280;58429;49.826;10.880;2023-02-28T05:02:43;99583;;;-1.83;71.24
4326;BME280;58429;49.826;10.880;2023-02-28T05:03:43;99577;;;-1.84;71.25
4326;BME280;58429;49.826;10.880;2023-02-28T05:04:43;99585;;;-1.83;71.37
4326;BME280;58429;49.826;10.880;2023-02-28T05:05:43;99585;;;-1.87;71.31
4326;BME280;58429;49.826;10.880;2023-02-28T05:06:43;99591;;;-1.85;71.26
4326;BME280;58429;49.826;10.880;2023-02-28T05:07:43;99583;;;-1.85;71.39
4326;BME280;58429;49.826;10.880;2023-02-28T05:08:43;99586;;;-1.86;71.46
4326;BME280;58429;49.826;10.880;2023-02-28T05:09:43;99588;;;-1.89;71.62
4326;BME280;58429;49.826;10.880;2023-02-28T05:10:43;99587;;;-1.87;71.51
4326;BME280;58429;49.826;10.880;2023-02-28T05:11:43;99587;;;-1.86;71.49
4326;BME280;58429;49.826;10.880;2023-02-28T05:12:43;99590;;;-1.88;71.55
4326;BME280;58429;49.826;10.880;2023-02-28T05:13:43;99593;;;-1.89;71.44
4326;BME280;58429;49.826;10.880;2023-02-28T05:14:43;99591;;;-1.87;71.46
4326;BME280;58429;49.826;10.880;2023-02-28T05:15:43;99592;;;-1.87;71.57
4326;BME280;58429;49.826;10.880;2023-02-28T05:16:43;99595;;;-1.88;71.46
4326;BME280;58429;49.826;10.880;2023-02-28T05:17:43;99593;;;-1.91;71.4
4326;BME280;58429;49.826;10.880;2023-02-28T05:18:43;99597;;;-1.9;71.45
4326;BME280;58429;49.826;10.880;2023-02-28T05:19:43;99583;;;-1.91;71.49
4326;BME280;58429;49.826;10.880;2023-02-28T05:20:43;99586;;;-1.93;71.53
4326;BME280;58429;49.826;10.880;2023-02-28T05:21:49;99594;;;-1.93;71.54
4326;BME280;58429;49.826;10.880;2023-02-28T05:22:43;99589;;;-1.9;71.57
4326;BME280;58429;49.826;10.880;2023-02-28T05:23:43;99588;;;-1.92;71.59
4326;BME280;58429;49.826;10.880;2023-02-28T05:24:43;99591;;;-1.9;71.51
4326;BME280;58429;49.826;10.880;2023-02-28T05:25:43;99597;;;-1.89;71.51
4326;BME280;58429;49.826;10.880;2023-02-28T05:26:43;99591;;;-1.94;71.55
4326;BME280;58429;49.826;10.880;2023-02-28T05:27:43;99592;;;-1.91;71.5
4326;BME280;58429;49.826;10.880;2023-02-28T05:28:43;99593;;;-1.9;71.52
4326;BME280;58429;49.826;10.880;2023-02-28T05:29:43;99601;;;-1.92;71.57
4326;BME280;58429;49.826;10.880;2023-02-28T05:30:43;99599;;;-1.9;71.46
4326;BME280;58429;49.826;10.880;2023-02-28T05:31:43;99596;;;-1.93;71.53
4326;BME280;58429;49.826;10.880;2023-02-28T05:32:43;99605;;;-1.89;71.55